Central De Minas, Brazil
Current Conditions -  °F | °C
As of 10:00 AM on Friday 24 Oct 2014 (Local Time) from SBIP Reporting Station
Broken Clouds Broken Clouds  
Wind Chill: 77°   Ceiling: 3500
Heat Index: 79°   Visibility: 6mi
Dew Point: 57°   Wind: 12mph
Humidity: 50%   Direction: 70°ENE
Pressure: 30.09"   Gusts: NA
Location:  18.76°S, 41.3°W
Report Text: SBIP 241200Z 07010KT 9999 SCT020 BKN035 25/14 Q1019
Loading
Personal Weather Stations






























Interactive Weather Map
Tropical Storm Tracking
New forecast layout! Learn more

10-Day Weather Forecast

Advertisements
Track Severe Weather on mobile